Aérodrome :
LOGIN :

S'inscrire | Disclaimer

   EN    FR    IT 

 










Légende :    VFR   VFR Marginal   IFR   IFR Intensif   IFR Très Intensif
Visi : 
Plafond : 
>= 8 km
>= 3000ft
5 à 8 km
1000 à 3000 ft
1500m à 5 km
500 à 1000 ft
800 à 1500m
200 à 500 ft
< 800m
< 200 ft
Symboles :   Orages  Brouillard  Fortes neiges  Fortes précipitations  Vent > 20 kt
SIGMETs :   Divers  Orages  Givrage  Turbulence  Onde Orograph.  Cendres Volcan.






- Altitude de l'aérodrome : 1020 ft
- Code IATA : ILZ


LZZI - Žilina

DERNIER METAR :
  • 020630Z VRB02KT 0500 R06/1800D FG SCT002 05/05 Q1010

METARs EXPIRÉS :
  • 020600Z VRB02KT 0400 R06/1300U FG BKN002 05/05 Q1010
  • 020530Z VRB02KT 0400 R06/0800D FG BKN002 05/05 Q1009
  • 020500Z 06002KT 0300 R06/0550N FG BKN002 05/05 Q1009
  • 020430Z VRB01KT 0200 R06/0375N FG BKN002 05/05 Q1009
  • 012100Z VRB04KT 9999 FEW004 BKN061 09/08 Q1010
  • 020400Z VRB01KT 0300 R06/1200D FG SCT001 BKN061 05/05 Q1009
  • 020330Z VRB01KT 0400 R06/1100D FG BKN001 05/05 Q1009
  • 020300Z VRB01KT 0300 R06/0750U FG BKN001 05/05 Q1009
  • 020230Z VRB01KT 0300 R06/0700D FG BKN001 05/05 Q1009
  • 020200Z 23003KT 0400 R06/0800U FG BKN001 06/06 Q1009

TAF TAF LZZI
Valide du 02 à 06h jusqu'au 02 à 15h UTC


020515Z 0206/0215 VRB02KT 9999 BKN035
TEMPO 0206/0208 0300 FG BKN001
TEMPO 0210/0215 4000 -RA BR SCT007 BKN012



MET'MAP, la Météo Aéronautique d'un coup d'oeil ! - Copyright ORBIFLY Décembre 2007 - Disclaimer

ORBIFLY MET'MAP TEAM :

Programmation & Développement : Alexandra Zaïnal
Sur une idée originale de : Baudouin d'Aumeries
Soutien technique & logistique : Manuel Goepfert
Assistance : Marc-Olivier Méhu




SOURCES & CREDITS :

   NOAA